sensor_id;sensor_type;location;lat;lon;timestamp;temperature;humidity
53748;DHT22;39655;53.210;5.768;2023-04-06T00:01:02;4.70;62.30
53748;DHT22;39655;53.210;5.768;2023-04-06T00:03:27;4.70;62.30
53748;DHT22;39655;53.210;5.768;2023-04-06T00:05:53;4.60;61.80
53748;DHT22;39655;53.210;5.768;2023-04-06T00:08:19;4.60;61.90
53748;DHT22;39655;53.210;5.768;2023-04-06T00:10:46;4.60;62.20
53748;DHT22;39655;53.210;5.768;2023-04-06T00:13:12;4.60;61.80
53748;DHT22;39655;53.210;5.768;2023-04-06T00:15:38;4.60;61.90
53748;DHT22;39655;53.210;5.768;2023-04-06T00:18:04;4.60;62.30
53748;DHT22;39655;53.210;5.768;2023-04-06T00:20:29;4.50;62.30
53748;DHT22;39655;53.210;5.768;2023-04-06T00:22:55;4.50;61.80
53748;DHT22;39655;53.210;5.768;2023-04-06T00:25:21;4.50;62.30
53748;DHT22;39655;53.210;5.768;2023-04-06T00:27:46;4.40;62.50
53748;DHT22;39655;53.210;5.768;2023-04-06T00:30:12;4.40;62.50
53748;DHT22;39655;53.210;5.768;2023-04-06T00:32:38;4.30;62.20
53748;DHT22;39655;53.210;5.768;2023-04-06T00:35:04;4.30;62.50
53748;DHT22;39655;53.210;5.768;2023-04-06T00:37:30;4.30;62.30
53748;DHT22;39655;53.210;5.768;2023-04-06T00:39:56;4.30;62.50
53748;DHT22;39655;53.210;5.768;2023-04-06T00:42:22;4.30;63.00
53748;DHT22;39655;53.210;5.768;2023-04-06T00:44:55;4.20;63.10
53748;DHT22;39655;53.210;5.768;2023-04-06T00:47:22;4.20;62.70
53748;DHT22;39655;53.210;5.768;2023-04-06T00:49:48;4.20;62.80
53748;DHT22;39655;53.210;5.768;2023-04-06T00:52:14;4.20;63.30
53748;DHT22;39655;53.210;5.768;2023-04-06T00:54:40;4.20;63.30
53748;DHT22;39655;53.210;5.768;2023-04-06T00:57:05;4.20;63.70
53748;DHT22;39655;53.210;5.768;2023-04-06T00:59:31;4.10;63.80
53748;DHT22;39655;53.210;5.768;2023-04-06T01:01:57;4.10;63.50
53748;DHT22;39655;53.210;5.768;2023-04-06T01:04:23;4.10;63.90
53748;DHT22;39655;53.210;5.768;2023-04-06T01:06:49;4.10;64.70
53748;DHT22;39655;53.210;5.768;2023-04-06T01:09:16;4.00;64.10
53748;DHT22;39655;53.210;5.768;2023-04-06T01:11:41;4.00;64.30
53748;DHT22;39655;53.210;5.768;2023-04-06T01:14:07;4.00;64.20
53748;DHT22;39655;53.210;5.768;2023-04-06T01:16:34;4.00;64.00
53748;DHT22;39655;53.210;5.768;2023-04-06T01:18:59;4.00;63.90
53748;DHT22;39655;53.210;5.768;2023-04-06T01:21:25;3.90;64.40
53748;DHT22;39655;53.210;5.768;2023-04-06T01:23:51;3.90;64.60
53748;DHT22;39655;53.210;5.768;2023-04-06T01:26:16;3.90;64.40
53748;DHT22;39655;53.210;5.768;2023-04-06T01:28:42;3.90;64.60
53748;DHT22;39655;53.210;5.768;2023-04-06T01:31:10;3.90;64.90
53748;DHT22;39655;53.210;5.768;2023-04-06T01:33:36;3.90;65.00
53748;DHT22;39655;53.210;5.768;2023-04-06T01:36:02;3.90;65.00
53748;DHT22;39655;53.210;5.768;2023-04-06T01:38:28;3.80;65.10
53748;DHT22;39655;53.210;5.768;2023-04-06T01:40:54;3.80;64.80
53748;DHT22;39655;53.210;5.768;2023-04-06T01:43:20;3.80;64.70
53748;DHT22;39655;53.210;5.768;2023-04-06T01:45:45;3.80;64.70
53748;DHT22;39655;53.210;5.768;2023-04-06T01:48:11;3.70;65.00
53748;DHT22;39655;53.210;5.768;2023-04-06T01:50:37;3.70;65.30
53748;DHT22;39655;53.210;5.768;2023-04-06T01:53:02;3.70;65.70
53748;DHT22;39655;53.210;5.768;2023-04-06T01:55:28;3.70;65.50
53748;DHT22;39655;53.210;5.768;2023-04-06T01:57:53;3.60;65.80
53748;DHT22;39655;53.210;5.768;2023-04-06T02:00:19;3.60;65.90
53748;DHT22;39655;53.210;5.768;2023-04-06T02:02:45;3.60;66.20
53748;DHT22;39655;53.210;5.768;2023-04-06T02:05:11;3.60;65.90
53748;DHT22;39655;53.210;5.768;2023-04-06T02:07:36;3.60;65.30
53748;DHT22;39655;53.210;5.768;2023-04-06T02:10:03;3.60;65.60
53748;DHT22;39655;53.210;5.768;2023-04-06T02:12:28;3.60;65.80
53748;DHT22;39655;53.210;5.768;2023-04-06T02:14:54;3.50;66.60
53748;DHT22;39655;53.210;5.768;2023-04-06T02:17:20;3.50;66.20
53748;DHT22;39655;53.210;5.768;2023-04-06T02:19:46;3.50;66.40
53748;DHT22;39655;53.210;5.768;2023-04-06T02:22:12;3.40;66.70
53748;DHT22;39655;53.210;5.768;2023-04-06T02:24:37;3.40;66.40
53748;DHT22;39655;53.210;5.768;2023-04-06T02:27:03;3.40;66.20
53748;DHT22;39655;53.210;5.768;2023-04-06T02:29:28;3.40;66.20
53748;DHT22;39655;53.210;5.768;2023-04-06T02:31:57;3.30;66.60
53748;DHT22;39655;53.210;5.768;2023-04-06T02:34:22;3.30;67.10
53748;DHT22;39655;53.210;5.768;2023-04-06T02:36:48;3.30;67.00
53748;DHT22;39655;53.210;5.768;2023-04-06T02:39:14;3.30;66.90
53748;DHT22;39655;53.210;5.768;2023-04-06T02:41:39;3.20;67.50
53748;DHT22;39655;53.210;5.768;2023-04-06T02:44:08;3.20;67.10
53748;DHT22;39655;53.210;5.768;2023-04-06T02:46:34;3.10;66.80
53748;DHT22;39655;53.210;5.768;2023-04-06T02:49:00;3.20;66.70
53748;DHT22;39655;53.210;5.768;2023-04-06T02:51:29;3.20;67.10
53748;DHT22;39655;53.210;5.768;2023-04-06T02:53:54;3.20;66.50
53748;DHT22;39655;53.210;5.768;2023-04-06T02:56:20;3.20;66.60
53748;DHT22;39655;53.210;5.768;2023-04-06T02:58:47;3.10;66.30
53748;DHT22;39655;53.210;5.768;2023-04-06T03:01:12;3.20;66.50
53748;DHT22;39655;53.210;5.768;2023-04-06T03:03:38;3.20;66.80
53748;DHT22;39655;53.210;5.768;2023-04-06T03:06:04;3.20;66.70
53748;DHT22;39655;53.210;5.768;2023-04-06T03:08:30;3.10;66.60
53748;DHT22;39655;53.210;5.768;2023-04-06T03:10:56;3.10;67.70
53748;DHT22;39655;53.210;5.768;2023-04-06T03:13:21;3.10;67.50
53748;DHT22;39655;53.210;5.768;2023-04-06T03:15:47;3.10;67.10
53748;DHT22;39655;53.210;5.768;2023-04-06T03:18:13;3.10;66.70
53748;DHT22;39655;53.210;5.768;2023-04-06T03:20:38;3.00;66.90
53748;DHT22;39655;53.210;5.768;2023-04-06T03:23:04;3.00;67.40
53748;DHT22;39655;53.210;5.768;2023-04-06T03:25:30;3.00;67.10
53748;DHT22;39655;53.210;5.768;2023-04-06T03:27:56;3.00;67.30
53748;DHT22;39655;53.210;5.768;2023-04-06T03:30:22;3.00;67.80
53748;DHT22;39655;53.210;5.768;2023-04-06T03:32:47;3.00;67.80
53748;DHT22;39655;53.210;5.768;2023-04-06T03:35:13;3.00;67.70
53748;DHT22;39655;53.210;5.768;2023-04-06T03:37:38;2.90;67.70
53748;DHT22;39655;53.210;5.768;2023-04-06T03:40:04;2.90;68.10
53748;DHT22;39655;53.210;5.768;2023-04-06T03:42:31;2.90;68.50
53748;DHT22;39655;53.210;5.768;2023-04-06T03:44:58;2.90;68.90
53748;DHT22;39655;53.210;5.768;2023-04-06T03:47:24;2.90;68.30
53748;DHT22;39655;53.210;5.768;2023-04-06T03:49:50;2.90;67.60
53748;DHT22;39655;53.210;5.768;2023-04-06T03:52:16;2.80;67.80
53748;DHT22;39655;53.210;5.768;2023-04-06T03:54:42;2.90;67.90
53748;DHT22;39655;53.210;5.768;2023-04-06T03:57:07;2.90;67.70
53748;DHT22;39655;53.210;5.768;2023-04-06T03:59:33;2.90;68.20
53748;DHT22;39655;53.210;5.768;2023-04-06T04:01:59;2.80;68.10
53748;DHT22;39655;53.210;5.768;2023-04-06T04:04:24;2.90;68.40
53748;DHT22;39655;53.210;5.768;2023-04-06T04:06:50;2.90;68.10
53748;DHT22;39655;53.210;5.768;2023-04-06T04:09:16;2.90;67.90
53748;DHT22;39655;53.210;5.768;2023-04-06T04:11:41;2.90;68.30
53748;DHT22;39655;53.210;5.768;2023-04-06T04:14:07;2.90;68.20
53748;DHT22;39655;53.210;5.768;2023-04-06T04:16:33;2.90;67.70
53748;DHT22;39655;53.210;5.768;2023-04-06T04:18:59;2.90;68.00
53748;DHT22;39655;53.210;5.768;2023-04-06T04:21:24;2.90;67.50
53748;DHT22;39655;53.210;5.768;2023-04-06T04:23:51;2.90;67.60
53748;DHT22;39655;53.210;5.768;2023-04-06T04:26:18;3.00;67.30
53748;DHT22;39655;53.210;5.768;2023-04-06T04:28:43;3.00;67.50
53748;DHT22;39655;53.210;5.768;2023-04-06T04:31:09;3.00;67.40
53748;DHT22;39655;53.210;5.768;2023-04-06T04:33:35;3.00;67.60
53748;DHT22;39655;53.210;5.768;2023-04-06T04:36:01;3.00;67.50
53748;DHT22;39655;53.210;5.768;2023-04-06T04:38:27;3.00;67.30
53748;DHT22;39655;53.210;5.768;2023-04-06T04:40:52;3.00;67.60
53748;DHT22;39655;53.210;5.768;2023-04-06T04:43:18;3.00;67.70
53748;DHT22;39655;53.210;5.768;2023-04-06T04:45:44;3.00;67.80
53748;DHT22;39655;53.210;5.768;2023-04-06T04:48:09;3.00;68.20
53748;DHT22;39655;53.210;5.768;2023-04-06T04:50:35;3.00;67.60
53748;DHT22;39655;53.210;5.768;2023-04-06T04:53:01;3.00;67.50
53748;DHT22;39655;53.210;5.768;2023-04-06T04:55:27;3.00;67.90
53748;DHT22;39655;53.210;5.768;2023-04-06T04:57:53;3.00;67.80
53748;DHT22;39655;53.210;5.768;2023-04-06T05:00:18;3.10;67.60
53748;DHT22;39655;53.210;5.768;2023-04-06T05:02:45;3.10;68.10
53748;DHT22;39655;53.210;5.768;2023-04-06T05:05:10;3.10;68.00
53748;DHT22;39655;53.210;5.768;2023-04-06T05:07:36;3.10;68.10
53748;DHT22;39655;53.210;5.768;2023-04-06T05:10:02;3.20;68.40
53748;DHT22;39655;53.210;5.768;2023-04-06T05:12:28;3.20;67.90
53748;DHT22;39655;53.210;5.768;2023-04-06T05:14:54;3.20;67.30
53748;DHT22;39655;53.210;5.768;2023-04-06T05:17:20;3.30;67.10
53748;DHT22;39655;53.210;5.768;2023-04-06T05:19:46;3.30;67.30
53748;DHT22;39655;53.210;5.768;2023-04-06T05:22:11;3.30;67.40
53748;DHT22;39655;53.210;5.768;2023-04-06T05:24:39;3.30;67.10
53748;DHT22;39655;53.210;5.768;2023-04-06T05:27:05;3.40;67.10
53748;DHT22;39655;53.210;5.768;2023-04-06T05:29:31;3.40;67.20
53748;DHT22;39655;53.210;5.768;2023-04-06T05:31:56;3.40;67.00
53748;DHT22;39655;53.210;5.768;2023-04-06T05:34:22;3.50;67.20
53748;DHT22;39655;53.210;5.768;2023-04-06T05:36:48;3.50;67.10
53748;DHT22;39655;53.210;5.768;2023-04-06T05:39:13;3.50;66.90
53748;DHT22;39655;53.210;5.768;2023-04-06T05:41:39;3.60;66.60
53748;DHT22;39655;53.210;5.768;2023-04-06T05:44:05;3.60;66.70
53748;DHT22;39655;53.210;5.768;2023-04-06T05:46:31;3.60;66.40
53748;DHT22;39655;53.210;5.768;2023-04-06T05:48:57;3.70;66.30
53748;DHT22;39655;53.210;5.768;2023-04-06T05:51:22;3.70;66.20
53748;DHT22;39655;53.210;5.768;2023-04-06T05:53:48;3.80;66.10
53748;DHT22;39655;53.210;5.768;2023-04-06T05:56:14;3.80;66.10
53748;DHT22;39655;53.210;5.768;2023-04-06T05:58:39;3.80;66.10
53748;DHT22;39655;53.210;5.768;2023-04-06T06:01:05;3.90;65.80
53748;DHT22;39655;53.210;5.768;2023-04-06T06:03:31;3.90;65.70
53748;DHT22;39655;53.210;5.768;2023-04-06T06:06:01;4.00;65.50
53748;DHT22;39655;53.210;5.768;2023-04-06T06:08:27;4.00;65.40
53748;DHT22;39655;53.210;5.768;2023-04-06T06:10:53;4.10;65.10
53748;DHT22;39655;53.210;5.768;2023-04-06T06:13:19;4.10;65.30
53748;DHT22;39655;53.210;5.768;2023-04-06T06:15:47;4.20;65.10
53748;DHT22;39655;53.210;5.768;2023-04-06T06:18:12;4.20;64.90
53748;DHT22;39655;53.210;5.768;2023-04-06T06:20:38;4.20;64.80
53748;DHT22;39655;53.210;5.768;2023-04-06T06:23:03;4.30;64.80
53748;DHT22;39655;53.210;5.768;2023-04-06T06:25:29;4.30;64.60
53748;DHT22;39655;53.210;5.768;2023-04-06T06:27:56;4.40;64.70
53748;DHT22;39655;53.210;5.768;2023-04-06T06:30:22;4.40;64.70
53748;DHT22;39655;53.210;5.768;2023-04-06T06:32:48;4.40;64.50
53748;DHT22;39655;53.210;5.768;2023-04-06T06:35:14;4.50;64.30
53748;DHT22;39655;53.210;5.768;2023-04-06T06:37:39;4.60;64.00
53748;DHT22;39655;53.210;5.768;2023-04-06T06:40:05;4.70;63.50
53748;DHT22;39655;53.210;5.768;2023-04-06T06:42:31;4.80;63.50
53748;DHT22;39655;53.210;5.768;2023-04-06T06:44:57;5.00;63.40
53748;DHT22;39655;53.210;5.768;2023-04-06T06:47:22;5.10;62.90
53748;DHT22;39655;53.210;5.768;2023-04-06T06:49:48;5.30;62.60
53748;DHT22;39655;53.210;5.768;2023-04-06T06:52:14;5.50;61.80
53748;DHT22;39655;53.210;5.768;2023-04-06T06:54:40;5.80;61.10
53748;DHT22;39655;53.210;5.768;2023-04-06T06:57:05;6.00;60.70
53748;DHT22;39655;53.210;5.768;2023-04-06T06:59:31;6.20;60.80
53748;DHT22;39655;53.210;5.768;2023-04-06T07:01:56;6.30;60.00
53748;DHT22;39655;53.210;5.768;2023-04-06T07:04:22;6.40;59.50
53748;DHT22;39655;53.210;5.768;2023-04-06T07:06:48;6.50;59.30
53748;DHT22;39655;53.210;5.768;2023-04-06T07:09:13;6.50;57.90
53748;DHT22;39655;53.210;5.768;2023-04-06T07:11:39;6.60;58.30
53748;DHT22;39655;53.210;5.768;2023-04-06T07:14:04;6.60;57.60
53748;DHT22;39655;53.210;5.768;2023-04-06T07:16:30;6.60;57.90
53748;DHT22;39655;53.210;5.768;2023-04-06T07:18:56;6.60;58.00
53748;DHT22;39655;53.210;5.768;2023-04-06T07:21:21;6.70;58.20
53748;DHT22;39655;53.210;5.768;2023-04-06T07:23:47;6.70;58.00
53748;DHT22;39655;53.210;5.768;2023-04-06T07:26:13;6.70;58.00
53748;DHT22;39655;53.210;5.768;2023-04-06T07:28:39;6.70;58.30
53748;DHT22;39655;53.210;5.768;2023-04-06T07:31:05;6.80;58.50
53748;DHT22;39655;53.210;5.768;2023-04-06T07:33:31;6.80;58.70
53748;DHT22;39655;53.210;5.768;2023-04-06T07:35:56;6.90;58.60
53748;DHT22;39655;53.210;5.768;2023-04-06T07:38:23;6.90;58.60
53748;DHT22;39655;53.210;5.768;2023-04-06T07:40:49;6.90;58.40
53748;DHT22;39655;53.210;5.768;2023-04-06T07:43:15;6.90;58.40
53748;DHT22;39655;53.210;5.768;2023-04-06T07:45:41;7.00;58.40
53748;DHT22;39655;53.210;5.768;2023-04-06T07:48:07;7.00;58.50
53748;DHT22;39655;53.210;5.768;2023-04-06T07:50:33;7.10;58.50
53748;DHT22;39655;53.210;5.768;2023-04-06T07:52:58;7.10;58.70
53748;DHT22;39655;53.210;5.768;2023-04-06T07:55:25;7.30;58.40
53748;DHT22;39655;53.210;5.768;2023-04-06T07:57:50;7.30;58.60
53748;DHT22;39655;53.210;5.768;2023-04-06T08:00:16;7.50;58.30
53748;DHT22;39655;53.210;5.768;2023-04-06T08:02:42;7.70;57.80
53748;DHT22;39655;53.210;5.768;2023-04-06T08:05:08;7.90;57.80
53748;DHT22;39655;53.210;5.768;2023-04-06T08:07:34;8.10;57.50
53748;DHT22;39655;53.210;5.768;2023-04-06T08:10:01;8.20;57.20
53748;DHT22;39655;53.210;5.768;2023-04-06T08:12:26;8.40;56.60
53748;DHT22;39655;53.210;5.768;2023-04-06T08:14:52;8.60;56.00
53748;DHT22;39655;53.210;5.768;2023-04-06T08:17:17;8.70;55.40
53748;DHT22;39655;53.210;5.768;2023-04-06T08:19:43;8.90;55.10
53748;DHT22;39655;53.210;5.768;2023-04-06T08:22:10;9.10;54.80
53748;DHT22;39655;53.210;5.768;2023-04-06T08:24:35;9.30;53.90
53748;DHT22;39655;53.210;5.768;2023-04-06T08:27:01;9.40;54.20
53748;DHT22;39655;53.210;5.768;2023-04-06T08:29:27;9.50;54.00
53748;DHT22;39655;53.210;5.768;2023-04-06T08:31:52;9.70;53.70
53748;DHT22;39655;53.210;5.768;2023-04-06T08:34:18;9.70;53.00
53748;DHT22;39655;53.210;5.768;2023-04-06T08:36:43;9.70;54.00
53748;DHT22;39655;53.210;5.768;2023-04-06T08:39:10;9.80;54.10
53748;DHT22;39655;53.210;5.768;2023-04-06T08:41:36;9.80;53.70
53748;DHT22;39655;53.210;5.768;2023-04-06T08:44:02;9.90;53.70
53748;DHT22;39655;53.210;5.768;2023-04-06T08:46:29;9.90;53.60
53748;DHT22;39655;53.210;5.768;2023-04-06T08:49:00;10.00;53.20
53748;DHT22;39655;53.210;5.768;2023-04-06T08:51:26;10.10;53.20
53748;DHT22;39655;53.210;5.768;2023-04-06T08:53:56;10.10;53.80
53748;DHT22;39655;53.210;5.768;2023-04-06T08:56:23;10.20;53.80
53748;DHT22;39655;53.210;5.768;2023-04-06T08:58:49;10.30;53.50
53748;DHT22;39655;53.210;5.768;2023-04-06T09:01:17;10.40;53.40
53748;DHT22;39655;53.210;5.768;2023-04-06T09:03:44;10.40;53.00
53748;DHT22;39655;53.210;5.768;2023-04-06T09:06:11;10.50;53.20
53748;DHT22;39655;53.210;5.768;2023-04-06T09:08:39;10.60;52.60
53748;DHT22;39655;53.210;5.768;2023-04-06T09:11:06;10.70;52.40
53748;DHT22;39655;53.210;5.768;2023-04-06T09:13:43;10.90;52.90
53748;DHT22;39655;53.210;5.768;2023-04-06T09:16:09;11.00;52.30
53748;DHT22;39655;53.210;5.768;2023-04-06T09:18:34;11.10;52.10
53748;DHT22;39655;53.210;5.768;2023-04-06T09:21:05;11.00;51.50
53748;DHT22;39655;53.210;5.768;2023-04-06T09:23:31;11.10;51.80
53748;DHT22;39655;53.210;5.768;2023-04-06T09:26:10;11.30;51.90
53748;DHT22;39655;53.210;5.768;2023-04-06T09:28:50;11.40;51.60
53748;DHT22;39655;53.210;5.768;2023-04-06T09:31:22;11.50;50.70
53748;DHT22;39655;53.210;5.768;2023-04-06T09:33:47;11.50;51.00
53748;DHT22;39655;53.210;5.768;2023-04-06T09:36:19;11.60;50.20
53748;DHT22;39655;53.210;5.768;2023-04-06T09:39:05;11.60;50.80
53748;DHT22;39655;53.210;5.768;2023-04-06T09:41:34;11.60;50.50
53748;DHT22;39655;53.210;5.768;2023-04-06T09:44:10;11.70;50.30
53748;DHT22;39655;53.210;5.768;2023-04-06T09:46:38;11.70;50.10
53748;DHT22;39655;53.210;5.768;2023-04-06T09:49:08;11.80;50.40
53748;DHT22;39655;53.210;5.768;2023-04-06T09:51:41;12.00;51.30
53748;DHT22;39655;53.210;5.768;2023-04-06T09:54:11;12.10;50.00
53748;DHT22;39655;53.210;5.768;2023-04-06T09:59:17;12.30;49.00
53748;DHT22;39655;53.210;5.768;2023-04-06T10:01:46;12.30;48.70
53748;DHT22;39655;53.210;5.768;2023-04-06T10:04:43;12.40;48.90
53748;DHT22;39655;53.210;5.768;2023-04-06T10:07:09;12.40;46.90
53748;DHT22;39655;53.210;5.768;2023-04-06T10:09:37;12.20;46.30
53748;DHT22;39655;53.210;5.768;2023-04-06T10:12:04;12.20;46.70
53748;DHT22;39655;53.210;5.768;2023-04-06T10:14:34;12.20;46.80
53748;DHT22;39655;53.210;5.768;2023-04-06T10:17:03;12.20;46.90
53748;DHT22;39655;53.210;5.768;2023-04-06T10:22:04;12.60;46.70
53748;DHT22;39655;53.210;5.768;2023-04-06T10:24:31;12.70;47.40
53748;DHT22;39655;53.210;5.768;2023-04-06T10:27:00;12.90;47.20
53748;DHT22;39655;53.210;5.768;2023-04-06T10:29:27;13.10;46.60
53748;DHT22;39655;53.210;5.768;2023-04-06T10:31:53;13.20;46.40
53748;DHT22;39655;53.210;5.768;2023-04-06T10:34:20;13.20;45.50
53748;DHT22;39655;53.210;5.768;2023-04-06T10:36:46;13.10;45.80
53748;DHT22;39655;53.210;5.768;2023-04-06T10:39:11;13.00;46.20
53748;DHT22;39655;53.210;5.768;2023-04-06T10:41:46;13.00;47.10
53748;DHT22;39655;53.210;5.768;2023-04-06T10:44:25;13.10;46.50
53748;DHT22;39655;53.210;5.768;2023-04-06T10:46:59;13.10;47.20
53748;DHT22;39655;53.210;5.768;2023-04-06T10:49:28;13.10;46.50
53748;DHT22;39655;53.210;5.768;2023-04-06T10:51:54;12.90;46.80
53748;DHT22;39655;53.210;5.768;2023-04-06T10:54:25;13.00;47.40
53748;DHT22;39655;53.210;5.768;2023-04-06T10:56:52;13.10;46.90
53748;DHT22;39655;53.210;5.768;2023-04-06T10:59:21;13.20;46.60
53748;DHT22;39655;53.210;5.768;2023-04-06T11:01:48;13.30;46.80
53748;DHT22;39655;53.210;5.768;2023-04-06T11:04:16;13.30;46.70
53748;DHT22;39655;53.210;5.768;2023-04-06T11:06:47;13.30;46.20
53748;DHT22;39655;53.210;5.768;2023-04-06T11:09:23;13.20;47.90
53748;DHT22;39655;53.210;5.768;2023-04-06T11:11:50;13.40;47.70
53748;DHT22;39655;53.210;5.768;2023-04-06T11:14:16;13.60;47.50
53748;DHT22;39655;53.210;5.768;2023-04-06T11:16:41;13.70;46.40
53748;DHT22;39655;53.210;5.768;2023-04-06T11:19:07;13.60;45.70
53748;DHT22;39655;53.210;5.768;2023-04-06T11:21:42;13.60;46.30
53748;DHT22;39655;53.210;5.768;2023-04-06T11:26:57;13.70;46.80
53748;DHT22;39655;53.210;5.768;2023-04-06T11:29:28;13.90;46.70
53748;DHT22;39655;53.210;5.768;2023-04-06T11:31:58;13.90;45.60
53748;DHT22;39655;53.210;5.768;2023-04-06T11:34:25;13.80;45.70
53748;DHT22;39655;53.210;5.768;2023-04-06T11:37:02;13.70;46.00
53748;DHT22;39655;53.210;5.768;2023-04-06T11:39:31;13.70;47.00
53748;DHT22;39655;53.210;5.768;2023-04-06T11:42:01;13.60;47.10
53748;DHT22;39655;53.210;5.768;2023-04-06T11:44:40;13.50;48.20
53748;DHT22;39655;53.210;5.768;2023-04-06T11:47:09;13.60;48.20
53748;DHT22;39655;53.210;5.768;2023-04-06T11:49:44;13.80;49.00
53748;DHT22;39655;53.210;5.768;2023-04-06T11:52:20;14.00;48.90
53748;DHT22;39655;53.210;5.768;2023-04-06T11:54:50;14.00;48.00
53748;DHT22;39655;53.210;5.768;2023-04-06T11:57:17;13.90;49.30
53748;DHT22;39655;53.210;5.768;2023-04-06T11:59:43;13.90;49.70
53748;DHT22;39655;53.210;5.768;2023-04-06T12:02:10;14.00;49.80
53748;DHT22;39655;53.210;5.768;2023-04-06T12:04:36;13.90;49.60
53748;DHT22;39655;53.210;5.768;2023-04-06T12:07:03;13.80;50.00
53748;DHT22;39655;53.210;5.768;2023-04-06T12:09:29;13.70;50.80
53748;DHT22;39655;53.210;5.768;2023-04-06T12:11:55;13.60;51.80
53748;DHT22;39655;53.210;5.768;2023-04-06T12:14:21;13.60;52.20
53748;DHT22;39655;53.210;5.768;2023-04-06T12:16:47;13.60;52.80
53748;DHT22;39655;53.210;5.768;2023-04-06T12:19:19;13.60;52.90
53748;DHT22;39655;53.210;5.768;2023-04-06T12:21:53;13.50;53.80
53748;DHT22;39655;53.210;5.768;2023-04-06T12:24:22;13.40;54.30
53748;DHT22;39655;53.210;5.768;2023-04-06T12:26:47;13.30;54.00
53748;DHT22;39655;53.210;5.768;2023-04-06T12:29:13;13.20;54.90
53748;DHT22;39655;53.210;5.768;2023-04-06T12:31:39;12.90;55.80
53748;DHT22;39655;53.210;5.768;2023-04-06T12:34:06;12.90;56.30
53748;DHT22;39655;53.210;5.768;2023-04-06T12:36:33;12.90;56.30
53748;DHT22;39655;53.210;5.768;2023-04-06T12:38:58;12.90;56.70
53748;DHT22;39655;53.210;5.768;2023-04-06T12:41:26;12.90;56.40
53748;DHT22;39655;53.210;5.768;2023-04-06T12:43:51;12.90;57.20
53748;DHT22;39655;53.210;5.768;2023-04-06T12:46:17;13.10;58.10
53748;DHT22;39655;53.210;5.768;2023-04-06T12:48:45;13.00;59.30
53748;DHT22;39655;53.210;5.768;2023-04-06T12:51:21;12.80;60.70
53748;DHT22;39655;53.210;5.768;2023-04-06T12:53:50;12.80;62.40
53748;DHT22;39655;53.210;5.768;2023-04-06T12:56:36;12.80;62.30
53748;DHT22;39655;53.210;5.768;2023-04-06T12:59:01;12.80;61.60
53748;DHT22;39655;53.210;5.768;2023-04-06T13:01:27;12.80;61.20
53748;DHT22;39655;53.210;5.768;2023-04-06T13:03:53;12.60;61.40
53748;DHT22;39655;53.210;5.768;2023-04-06T13:06:18;12.20;61.30
53748;DHT22;39655;53.210;5.768;2023-04-06T13:08:44;11.90;62.90
53748;DHT22;39655;53.210;5.768;2023-04-06T13:11:12;11.60;63.60
53748;DHT22;39655;53.210;5.768;2023-04-06T13:13:38;11.50;66.10
53748;DHT22;39655;53.210;5.768;2023-04-06T13:16:06;11.50;66.00
53748;DHT22;39655;53.210;5.768;2023-04-06T13:18:33;11.40;66.60
53748;DHT22;39655;53.210;5.768;2023-04-06T13:20:59;11.30;66.40
53748;DHT22;39655;53.210;5.768;2023-04-06T13:23:25;11.20;65.80
53748;DHT22;39655;53.210;5.768;2023-04-06T13:26:02;11.20;66.70
53748;DHT22;39655;53.210;5.768;2023-04-06T13:28:28;11.10;67.40
53748;DHT22;39655;53.210;5.768;2023-04-06T13:30:55;11.00;68.30
53748;DHT22;39655;53.210;5.768;2023-04-06T13:33:23;11.00;68.80
53748;DHT22;39655;53.210;5.768;2023-04-06T13:35:49;11.10;69.40
53748;DHT22;39655;53.210;5.768;2023-04-06T13:38:15;11.00;69.60
53748;DHT22;39655;53.210;5.768;2023-04-06T13:40:41;11.10;69.60
53748;DHT22;39655;53.210;5.768;2023-04-06T13:43:07;11.00;70.00
53748;DHT22;39655;53.210;5.768;2023-04-06T13:45:33;11.10;70.70
53748;DHT22;39655;53.210;5.768;2023-04-06T13:47:59;10.90;71.50
53748;DHT22;39655;53.210;5.768;2023-04-06T13:50:28;10.90;71.60
53748;DHT22;39655;53.210;5.768;2023-04-06T13:52:53;10.80;71.80
53748;DHT22;39655;53.210;5.768;2023-04-06T13:55:19;10.80;71.80
53748;DHT22;39655;53.210;5.768;2023-04-06T13:57:45;10.80;72.90
53748;DHT22;39655;53.210;5.768;2023-04-06T14:00:11;10.70;73.60
53748;DHT22;39655;53.210;5.768;2023-04-06T14:02:38;10.60;73.10
53748;DHT22;39655;53.210;5.768;2023-04-06T14:05:05;10.60;74.10
53748;DHT22;39655;53.210;5.768;2023-04-06T14:07:30;10.60;74.20
53748;DHT22;39655;53.210;5.768;2023-04-06T14:09:56;10.50;74.80
53748;DHT22;39655;53.210;5.768;2023-04-06T14:12:21;10.40;75.60
53748;DHT22;39655;53.210;5.768;2023-04-06T14:14:47;10.30;75.60
53748;DHT22;39655;53.210;5.768;2023-04-06T14:17:13;10.30;75.70
53748;DHT22;39655;53.210;5.768;2023-04-06T14:19:38;10.20;76.80
53748;DHT22;39655;53.210;5.768;2023-04-06T14:22:05;10.20;76.80
53748;DHT22;39655;53.210;5.768;2023-04-06T14:24:30;10.10;77.10
53748;DHT22;39655;53.210;5.768;2023-04-06T14:26:56;10.00;78.20
53748;DHT22;39655;53.210;5.768;2023-04-06T14:29:23;9.80;78.30
53748;DHT22;39655;53.210;5.768;2023-04-06T14:31:48;9.90;78.20
53748;DHT22;39655;53.210;5.768;2023-04-06T14:34:14;9.80;78.70
53748;DHT22;39655;53.210;5.768;2023-04-06T14:36:41;9.80;78.70
53748;DHT22;39655;53.210;5.768;2023-04-06T14:39:07;9.80;78.70
53748;DHT22;39655;53.210;5.768;2023-04-06T14:41:33;9.80;79.20
53748;DHT22;39655;53.210;5.768;2023-04-06T14:44:00;9.80;79.30
53748;DHT22;39655;53.210;5.768;2023-04-06T14:46:26;9.80;80.10
53748;DHT22;39655;53.210;5.768;2023-04-06T14:48:55;9.70;79.80
53748;DHT22;39655;53.210;5.768;2023-04-06T14:51:21;9.60;79.60
53748;DHT22;39655;53.210;5.768;2023-04-06T14:53:47;9.70;79.30
53748;DHT22;39655;53.210;5.768;2023-04-06T14:56:12;9.70;80.20
53748;DHT22;39655;53.210;5.768;2023-04-06T14:58:38;9.60;80.70
53748;DHT22;39655;53.210;5.768;2023-04-06T15:01:06;9.60;80.80
53748;DHT22;39655;53.210;5.768;2023-04-06T15:03:32;9.60;80.30
53748;DHT22;39655;53.210;5.768;2023-04-06T15:05:57;9.70;80.60
53748;DHT22;39655;53.210;5.768;2023-04-06T15:08:23;9.60;80.50
53748;DHT22;39655;53.210;5.768;2023-04-06T15:10:50;9.60;80.70
53748;DHT22;39655;53.210;5.768;2023-04-06T15:13:16;9.60;81.50
53748;DHT22;39655;53.210;5.768;2023-04-06T15:15:42;9.60;81.10
53748;DHT22;39655;53.210;5.768;2023-04-06T15:18:08;9.50;82.40
53748;DHT22;39655;53.210;5.768;2023-04-06T15:20:34;9.50;81.40
53748;DHT22;39655;53.210;5.768;2023-04-06T15:23:01;9.50;81.20
53748;DHT22;39655;53.210;5.768;2023-04-06T15:25:27;9.40;81.90
53748;DHT22;39655;53.210;5.768;2023-04-06T15:27:56;9.50;81.50
53748;DHT22;39655;53.210;5.768;2023-04-06T15:30:22;9.40;81.90
53748;DHT22;39655;53.210;5.768;2023-04-06T15:32:56;9.40;82.10
53748;DHT22;39655;53.210;5.768;2023-04-06T15:35:23;9.40;82.40
53748;DHT22;39655;53.210;5.768;2023-04-06T15:37:49;9.40;82.20
53748;DHT22;39655;53.210;5.768;2023-04-06T15:40:14;9.40;82.20
53748;DHT22;39655;53.210;5.768;2023-04-06T15:42:41;9.40;82.10
53748;DHT22;39655;53.210;5.768;2023-04-06T15:45:09;9.30;82.90